ロンドン/ヒースロー の空港の天気 - METARとTAF

ロンドン・ヒースロー空港 ( EGLL / LHR ) - イギリス ロンドン
飛行場実況気象(Metar)
観測時間10/14 22:20 BST (10/14 21:20 UTC)
風向・風速南 5m/s
視程10km以上
天気現象
少しの雲 雲底高度 240m
全天の4割程度の雲 雲底高度 340m
全天の8割程度の雲 雲底高度 490m
気温15℃
湿度100%
気圧1000hPa
METAREGLL 142120Z AUTO 19010KT 160V250 9999 FEW008 SCT011 BKN016 15/15 Q1000 TEMPO BKN008
過去の天気等 Google飛行場航空写真 Wunderground天気予報

過去48時間のMETAR

飛行場予報(TAF)
発表時間: 10/14 18:05 BST (10/14 17:05 UTC)
予報対象時間: 14日19時 BST ~ 16日1時 BST
風向・風速東 6m/s
視程10km以上
全天の4割程度の雲 雲底高度 760m
14日19時 BST ~ 14日22時 BST に 確率 30% で一時的に
風向・風速南 8m/s 瞬間風速 13m/s
視程3000m
天気現象強い雷雨
全天の8割程度の雲 雲底高度 240m
全天の8割程度の積乱雲 雲底高度 760m
14日20時 BST ~ 14日22時 BST に徐々に
風向・風速西南西 4m/s
14日22時 BST ~ 15日10時 BST に一時的に
全天の8割程度の雲 雲底高度 180m
15日1時 BST ~ 15日9時 BST に 確率 30% で一時的に
視程8000m
全天の8割程度の雲 雲底高度 120m
15日7時 BST ~ 15日10時 BST に 確率 30% で一時的に
視程4000m
天気現象しゅう雨
15日13時 BST ~ 15日19時 BST に一時的に
視程6000m
天気現象しゅう雨
15日16時 BST ~ 15日19時 BST に 確率 30% で一時的に
風向・風速西南西 8m/s 瞬間風速 13m/s
TAF EGLL 141705Z 1418/1524 09012KT 9999 SCT025
PROB30 TEMPO 1418/1421 18015G25KT 3000 +TSRA BKN008 BKN025CB
BECMG 1419/1421 25008KT
TEMPO 1421/1509 BKN006
PROB30 TEMPO 1500/1508 8000 BKN004
PROB30 TEMPO 1506/1509 4000 SHRA
TEMPO 1512/1518 6000 SHRA
PROB30 TEMPO 1515/1518 24015G25KT